Latest Weather Observations for Oodnadatta

IDS60801

Issued at 4:01 pm CDT Saturday 25 November 2017 (issued every 30 minutes, with the page automatically refreshed every 10 minutes)

About weather observations | Map of weather stations | Latest weather observations for SA | Other Formats
Station Details ID: 017043 Name: OODNADATTA AIRPORT Lat: -27.56 Lon: 135.45 Height: 116.5 m
Data from the previous 72 hours. | See also: Recent months at Oodnadatta
Date/Time
CDT
Temp
°C
App
Temp
°C
Dew
Point
°C
Rel
Hum
%
Delta-T
°C
Wind Press
QNH
hPa
Press
MSL
hPa
Rain since
9am
mm
Dir  Spd
km/h
Gust
km/h
Spd
kts
Gust
kts
25/04:00pm 34.7 31.7 9.2 21 14.6 SSE 15 28 8 15 1008.2 1007.6 0.0
25/03:30pm 34.0 32.3 9.9 23 13.9 NW 9 13 5 7 1008.6 1008.0 0.0
25/03:00pm 33.9 31.3 9.2 22 14.1 W 13 20 7 11 1009.0 1008.4 0.0
25/02:30pm 33.5 31.2 8.9 22 14.0 W 11 22 6 12 1009.2 1008.6 0.0
25/02:00pm 32.8 30.9 8.9 23 13.5 SE 9 13 5 7 1009.7 1009.1 0.0
25/01:30pm 32.1 31.1 9.0 24 13.1 NW 4 11 2 6 1009.9 1009.3 0.0
25/01:00pm 31.4 29.5 9.0 25 12.6 S 9 13 5 7 1010.8 1010.1 0.0
25/12:30pm 30.6 29.2 8.9 26 12.2 ESE 6 15 3 8 1011.3 1010.6 0.0
25/12:00pm 30.7 28.9 9.6 27 12.0 SE 9 15 5 8 1011.7 1011.0 0.0
25/11:30am 29.1 28.2 9.3 29 11.1 ESE 4 11 2 6 1012.0 1011.3 0.0
25/11:00am 28.4 26.8 10.1 32 10.3 NE 9 15 5 8 1012.3 1011.7 0.0
25/10:30am 27.8 26.0 10.9 35 9.6 ESE 11 19 6 10 1012.4 1011.8 0.0
25/10:00am 26.7 23.9 11.2 38 8.8 SE 17 24 9 13 1012.5 1011.9 0.0
25/09:30am 25.5 23.2 11.7 42 7.9 SE 15 22 8 12 1012.8 1012.2 0.0
25/09:00am 24.2 22.7 11.9 46 7.0 SE 11 15 6 8 1012.9 1012.3 0.0
25/08:30am 22.6 21.8 11.7 50 6.1 SSE 7 11 4 6 1012.9 1012.3 0.0
25/08:00am 21.0 20.1 11.3 54 5.4 S 7 9 4 5 1012.8 1012.2 0.0
25/07:30am 19.8 18.7 12.1 61 4.3 SE 9 11 5 6 1012.4 1011.8 0.0
25/07:00am 18.6 17.9 11.9 65 3.7 SE 7 9 4 5 1012.2 1011.6 0.0
25/06:30am 18.1 18.6 11.7 66 3.5 CALM 0 0 0 0 1012.0 1011.3 0.0
25/06:00am 17.9 18.6 12.1 69 3.2 CALM 0 0 0 0 1011.6 1010.9 0.0
25/05:30am 18.3 18.2 12.1 67 3.4 SE 4 6 2 3 1011.1 1010.4 0.0
25/05:00am 18.2 18.9 12.2 68 3.3 CALM 0 0 0 0 1011.2 1010.5 0.0
25/04:30am 19.1 19.6 11.7 62 4.1 CALM 0 4 0 2 1011.1 1010.4 0.0
25/04:00am 19.3 17.6 11.1 59 4.5 SE 11 13 6 7 1010.6 1009.9 0.0
25/03:30am 20.3 18.2 11.0 55 5.1 SE 13 15 7 8 1010.6 1009.9 0.0
25/03:00am 20.4 18.3 11.1 55 5.1 SE 13 15 7 8 1010.8 1010.1 0.0
25/02:30am 20.7 19.9 11.6 56 5.1 SSE 7 11 4 6 1011.2 1010.5 0.0
25/02:00am 20.6 19.0 11.5 56 5.1 SE 11 13 6 7 1011.3 1010.6 0.0
25/01:30am 21.2 19.5 11.2 53 5.6 SE 11 13 6 7 1011.5 1010.8 0.0
25/01:00am 21.6 19.9 11.3 52 5.7 SE 11 13 6 7 1011.9 1011.2 0.0
25/12:30am 22.2 21.1 11.9 52 5.8 SE 9 11 5 6 1012.2 1011.6 0.0
25/12:00am 22.9 22.0 11.3 48 6.5 SSE 7 9 4 5 1012.1 1011.4 0.0
 
Date/Time
CDT
Temp
°C
App
Temp
°C
Dew
Point
°C
Rel
Hum
%
Delta-T
°C
Wind Press
QNH
hPa
Press
MSL
hPa
Rain since
9am
mm
Dir  Spd
km/h
Gust
km/h
Spd
kts
Gust
kts
24/11:30pm 23.7 22.4 11.4 46 6.9 SSE 9 11 5 6 1012.3 1011.7 0.0
24/11:00pm 24.0 22.2 11.0 44 7.3 S 11 13 6 7 1012.1 1011.4 0.0
24/10:30pm 24.8 22.6 10.7 41 7.9 SSW 13 13 7 7 1011.9 1011.2 0.0
24/10:00pm 25.7 23.6 9.9 37 8.8 SSW 11 13 6 7 1011.6 1010.9 0.0
24/09:30pm 26.4 24.2 9.3 34 9.4 SSW 11 13 6 7 1011.4 1010.7 0.0
24/09:00pm 27.4 24.3 8.8 31 10.2 SSW 15 17 8 9 1011.1 1010.4 0.0
24/08:30pm 28.2 24.9 8.0 28 11.0 SSW 15 17 8 9 1011.0 1010.3 0.0
24/08:00pm 29.0 25.2 7.6 26 11.6 SSW 17 22 9 12 1011.0 1010.3 0.0
24/07:30pm 29.9 25.2 7.8 25 12.1 SSW 22 28 12 15 1010.8 1010.1 0.0
24/07:00pm 30.6 26.3 7.7 24 12.6 SW 20 30 11 16 1010.5 1009.8 0.0
24/06:30pm 30.7 26.6 7.8 24 12.6 S 19 28 10 15 1010.3 1009.7 0.0
24/06:00pm 30.5 25.4 7.7 24 12.5 SSW 24 33 13 18 1010.2 1009.6 0.0
24/05:30pm 30.9 25.5 8.0 24 12.7 S 26 39 14 21 1010.2 1009.6 0.0
24/05:26pm 30.9 26.4 8.6 25 12.4 S 22 39 12 21 1010.1 1009.5 0.0
24/05:00pm 30.4 26.2 8.2 25 12.3 SSW 20 33 11 18 1010.3 1009.7 0.0
24/04:30pm 29.9 25.7 8.3 26 11.9 SSW 20 32 11 17 1010.5 1009.8 0.0
24/04:00pm 30.3 26.0 9.2 27 11.8 SSW 22 35 12 19 1010.8 1010.1 0.0
24/03:30pm 29.3 25.3 8.9 28 11.4 SSW 20 35 11 19 1011.2 1010.5 0.0
24/03:00pm 29.1 24.5 9.8 30 10.9 SSW 24 39 13 21 1011.4 1010.7 0.0
24/02:30pm 28.3 23.9 10.5 33 10.1 SSW 24 35 13 19 1012.0 1011.3 0.0
24/02:00pm 27.5 23.9 10.7 35 9.5 S 20 33 11 18 1012.5 1011.9 0.0
24/01:30pm 26.6 22.2 10.3 36 9.2 SW 24 37 13 20 1012.9 1012.3 0.0
24/01:00pm 26.1 22.3 11.1 39 8.5 SSW 22 35 12 19 1013.3 1012.7 0.0
24/12:30pm 25.4 21.5 10.8 40 8.2 SSW 22 35 12 19 1013.7 1013.1 0.0
24/12:00pm 24.9 21.2 11.5 43 7.6 SSW 22 32 12 17 1013.9 1013.3 0.0
24/11:30am 23.7 19.2 11.4 46 6.9 SSW 26 35 14 19 1014.1 1013.5 0.0
24/11:00am 23.2 19.1 11.3 47 6.7 SSW 24 35 13 19 1014.5 1013.9 0.0
24/10:30am 22.2 18.5 11.6 51 6.0 SSW 22 35 12 19 1014.6 1014.0 0.0
24/10:00am 21.8 17.9 12.1 54 5.5 SSW 24 30 13 16 1014.8 1014.2 0.0
24/09:30am 20.6 16.7 12.1 58 4.8 SSW 24 30 13 16 1014.9 1014.3 0.0
24/09:00am 20.5 16.7 12.5 60 4.5 S 24 30 13 16 1014.8 1014.2 0.0
24/08:30am 19.5 15.7 12.5 64 3.9 S 24 30 13 16 1014.3 1013.7 0.0
24/08:00am 19.0 16.0 12.5 66 3.7 S 20 28 11 15 1014.2 1013.6 0.0
24/07:30am 18.3 16.3 12.7 70 3.1 S 15 20 8 11 1013.9 1013.3 0.0
24/07:00am 17.7 15.0 12.8 73 2.7 SSW 19 24 10 13 1013.4 1012.8 0.0
24/06:30am 17.5 14.2 12.8 74 2.6 SSW 22 28 12 15 1012.7 1012.1 0.0
24/06:00am 17.7 14.7 12.6 72 2.9 SSW 20 24 11 13 1012.3 1011.7 0.0
24/05:30am 18.0 15.0 12.5 70 3.1 SSW 20 24 11 13 1012.0 1011.3 0.0
24/05:00am 18.4 15.4 12.4 68 3.4 SSW 20 26 11 14 1011.8 1011.1 0.0
24/04:30am 18.8 16.3 12.3 66 3.6 SSW 17 20 9 11 1011.7 1011.0 0.0
24/04:00am 19.4 16.4 12.4 64 3.9 SSW 20 24 11 13 1011.3 1010.6 0.0
24/03:30am 19.9 16.8 12.2 61 4.3 SSW 20 26 11 14 1011.2 1010.5 0.0
24/03:00am 20.5 17.4 12.2 59 4.7 SSW 20 26 11 14 1011.2 1010.5 0.0
24/02:30am 20.7 18.2 12.4 59 4.7 SSW 17 22 9 12 1011.4 1010.7 0.0
24/02:00am 20.9 18.8 12.3 58 4.9 S 15 19 8 10 1011.5 1010.8 0.0
24/01:30am 21.8 19.3 12.4 55 5.3 S 17 22 9 12 1011.6 1010.9 0.0
24/01:00am 22.4 19.4 12.4 53 5.7 S 20 24 11 13 1011.7 1011.0 0.0
24/12:30am 23.0 19.5 12.3 51 6.1 S 22 28 12 15 1011.7 1011.0 0.0
24/12:00am 23.3 20.2 11.7 48 6.6 SSW 19 28 10 15 1011.5 1010.8 0.0
 
Date/Time
CDT
Temp
°C
App
Temp
°C
Dew
Point
°C
Rel
Hum
%
Delta-T
°C
Wind Press
QNH
hPa
Press
MSL
hPa
Rain since
9am
mm
Dir  Spd
km/h
Gust
km/h
Spd
kts
Gust
kts
23/11:30pm 23.8 20.5 11.5 46 7.0 SSW 20 26 11 14 1011.3 1010.6 0.0
23/11:00pm 24.3 20.8 10.9 43 7.5 SSW 20 26 11 14 1011.0 1010.3 0.0
23/10:30pm 24.9 20.6 10.8 41 7.9 S 24 30 13 16 1010.7 1010.0 0.0
23/10:00pm 25.4 21.1 10.8 40 8.2 S 24 32 13 17 1010.2 1009.6 0.0
23/09:30pm 25.8 22.6 10.0 37 8.8 SSW 17 20 9 11 1009.8 1009.2 0.0
23/09:00pm 26.2 24.0 10.8 38 8.7 SSW 13 15 7 8 1009.5 1008.9 0.0
23/08:30pm 26.8 24.9 10.5 36 9.2 SSW 11 13 6 7 1009.0 1008.4 0.0
23/08:00pm 27.9 25.5 10.1 33 10.0 S 13 19 7 10 1008.7 1008.1 0.0
23/07:30pm 28.8 25.6 10.0 31 10.6 SSW 17 24 9 13 1008.5 1007.9 0.0
23/07:00pm 29.4 25.8 10.5 31 10.8 SW 20 28 11 15 1008.5 1007.9 0.0
23/06:30pm 28.7 25.1 9.9 31 10.6 SSW 19 24 10 13 1008.4 1007.8 0.0
23/06:00pm 29.1 25.9 9.8 30 10.9 SSW 17 32 9 17 1008.4 1007.8 0.0
23/05:30pm 28.1 25.7 9.9 32 10.2 SSE 13 20 7 11 1008.7 1008.1 0.0
23/05:00pm 27.6 21.9 9.9 33 9.9 SSW 30 43 16 23 1009.1 1008.5 0.0
23/04:30pm 27.9 23.2 9.2 31 10.4 SSW 24 37 13 20 1009.3 1008.7 0.0
23/04:00pm 27.9 22.3 8.7 30 10.6 SSW 28 35 15 19 1009.4 1008.8 0.0
23/03:30pm 27.5 21.7 9.3 32 10.1 S 30 39 16 21 1009.7 1009.1 0.0
23/03:00pm 27.6 22.6 9.4 32 10.1 SSW 26 37 14 20 1010.2 1009.6 0.0
23/02:30pm 25.9 20.7 8.8 34 9.3 SSW 26 35 14 19 1010.7 1010.0 0.0
23/02:00pm 25.7 21.2 8.7 34 9.2 SSW 22 32 12 17 1011.1 1010.4 0.0
23/01:30pm 24.8 20.4 9.1 37 8.6 SSW 22 33 12 18 1011.4 1010.7 0.0
23/01:00pm 24.7 19.2 9.0 37 8.5 S 28 37 15 20 1011.7 1011.0 0.0
23/12:30pm 24.2 20.0 11.2 44 7.3 SSW 24 35 13 19 1012.0 1011.3 0.0
23/12:00pm 22.9 18.8 11.3 48 6.5 SSW 24 33 13 18 1012.3 1011.7 0.0
23/11:30am 22.2 17.2 11.0 49 6.2 SSW 28 39 15 21 1012.7 1012.1 0.0
23/11:16am 22.3 17.7 12.3 53 5.7 S 28 46 15 25 1012.6 1012.0 0.0
23/11:00am 21.8 16.4 10.9 50 6.0 S 30 39 16 21 1012.7 1012.1 0.0
23/10:30am 21.4 16.2 12.8 58 4.9 S 32 39 17 21 1012.7 1012.1 0.0
23/10:00am 20.6 14.8 12.8 61 4.4 S 35 43 19 23 1012.7 1012.1 0.0
23/09:30am 19.7 14.9 13.9 69 3.4 S 32 37 17 20 1012.8 1012.2 0.0
23/09:00am 19.7 14.9 14.1 70 3.2 S 32 39 17 21 1012.7 1012.1 17.4
23/08:30am 18.9 14.1 14.0 73 2.8 S 32 41 17 22 1012.4 1011.8 17.4
23/08:00am 18.4 14.1 14.5 78 2.3 S 30 37 16 20 1012.0 1011.3 17.4
23/07:30am 17.9 15.0 15.0 83 1.7 S 24 32 13 17 1011.7 1011.0 17.4
23/07:00am 17.5 15.4 15.1 86 1.4 S 20 26 11 14 1011.4 1010.7 17.4
23/06:30am 17.5 14.9 15.0 85 1.5 S 22 28 12 15 1011.0 1010.3 17.4
23/06:00am 17.8 15.7 15.1 84 1.6 S 20 28 11 15 1010.7 1010.0 17.4
23/05:30am 18.1 15.2 15.2 83 1.7 S 24 30 13 16 1010.1 1009.5 17.4
23/05:00am 18.3 15.5 15.4 83 1.7 S 24 30 13 16 1009.7 1009.1 17.4
23/04:30am 18.7 14.8 15.4 81 2.0 S 30 35 16 19 1009.4 1008.8 17.4
23/04:00am 19.2 15.4 15.7 80 2.1 SSW 30 39 16 21 1009.4 1008.8 17.4
23/03:30am 19.5 15.9 16.2 81 2.0 SSW 30 37 16 20 1009.1 1008.5 17.4
23/03:00am 20.6 17.8 16.4 77 2.5 SSW 26 33 14 18 1008.8 1008.2 17.4
23/02:30am 20.4 18.2 16.8 80 2.2 SW 24 32 13 17 1008.8 1008.2 17.4
23/02:00am 20.4 18.6 17.0 81 2.1 SW 22 30 12 16 1008.7 1008.1 17.4
23/01:30am 20.1 19.3 17.1 83 1.8 SW 17 22 9 12 1008.8 1008.2 17.4
23/01:00am 19.8 19.6 17.6 87 1.4 WSW 15 17 8 9 1008.8 1008.2 17.4
23/12:30am 19.9 20.9 17.7 87 1.4 SSW 9 13 5 7 1008.9 1008.3 17.4
23/12:00am 20.1 20.7 17.7 86 1.5 SSW 11 13 6 7 1008.9 1008.3 17.4
 
Date/Time
CDT
Temp
°C
App
Temp
°C
Dew
Point
°C
Rel
Hum
%
Delta-T
°C
Wind Press
QNH
hPa
Press
MSL
hPa
Rain since
9am
mm
Dir  Spd
km/h
Gust
km/h
Spd
kts
Gust
kts
22/11:30pm 20.3 20.4 17.5 84 1.7 SSW 13 15 7 8 1009.0 1008.4 17.4
22/11:00pm 21.1 21.7 16.9 77 2.6 ENE 9 11 5 6 1008.9 1008.3 17.4
22/10:30pm 21.5 22.0 16.5 73 3.0 ESE 9 15 5 8 1008.9 1008.3 17.4
22/10:00pm 21.5 21.4 16.9 75 2.8 NNE 13 17 7 9 1008.2 1007.6 17.4
22/09:30pm 22.0 20.2 16.1 69 3.6 NNE 20 26 11 14 1007.9 1007.3 17.4
22/09:00pm 21.8 20.6 17.4 76 2.7 NE 20 26 11 14 1007.9 1007.3 17.4
22/08:30pm 21.9 18.6 17.1 74 3.0 NE 30 39 16 21 1008.0 1007.4 17.4
22/08:00pm 21.8 18.4 17.8 78 2.5 ENE 32 41 17 22 1007.9 1007.3 17.4
22/07:30pm 22.7 21.5 17.4 72 3.3 NE 20 41 11 22 1008.2 1007.6 15.4
22/07:00pm 23.1 19.2 16.9 68 3.8 ENE 33 43 18 23 1007.3 1006.7 15.4
22/06:47pm 23.0 19.2 17.2 70 3.6 ENE 33 48 18 26 1007.0 1006.4 15.4
22/06:30pm 22.3 16.7 17.4 74 3.0 E 43 52 23 28 1006.0 1005.4 15.4
22/06:00pm 21.9 16.5 21.6 98 0.2 ESE 52 72 28 39 1005.2 1004.6 14.8
22/05:53pm 21.6 16.0 21.1 97 0.3 E 52 72 28 39 1005.3 1004.7 14.8
22/05:30pm 21.1 16.1 20.9 99 0.1 E 48 65 26 35 1006.4 1005.8 14.6
22/05:23pm 20.7 16.3 20.5 99 0.1 ESE 44 61 24 33 1007.2 1006.6 14.6
22/05:20pm 20.2 15.6 20.0 99 0.1 ESE 44 61 24 33 1007.6 1007.0 14.6
22/05:11pm 20.1 14.0 20.1 100 0.0 SSE 52 72 28 39 1008.3 1007.7 14.4
22/05:00pm 19.8 12.5 19.6 99 0.1 S 57 80 31 43 1007.7 1007.1 14.0
22/04:52pm 19.0 9.8 18.8 99 0.1 SSW 65 89 35 48 1007.7 1007.1 12.0
22/04:36pm 19.9 12.2 18.7 93 0.8 SSW 57 98 31 53 1005.7 1005.1 0.8
22/04:32pm 25.1 21.2 16.5 59 5.3 SE 32 83 17 45 1006.9 1006.3 0.0
22/04:31pm 26.6 23.0 15.3 50 6.9 ESE 28 72 15 39 1006.7 1006.1 0.0
22/04:30pm 27.4 24.4 14.8 46 7.7 E 24 72 13 39 1006.6 1006.0 0.0
22/04:28pm 34.4 31.8 13.3 28 12.8 ENE 19 28 10 15 1006.1 1005.5 0.0

Other Formats:

Comma delimited format used in spreadsheet applications
http://www.bom.gov.au/fwo/IDS60801/IDS60801.94476.axf

JavaScript Object Notation format (JSON) in row-major order
http://www.bom.gov.au/fwo/IDS60801/IDS60801.94476.json